Time;durP1;ratioP1;P1;durP2;ratioP2;P2;SDS_P1;SDS_P2;PMS_P1;PMS_P2;Temp;Humidity;BMP_temperature;BMP_pressure;BME280_temperature;BME280_humidity;BME280_pressure;Samples;Min_cycle;Max_cycle;Signal;HPM_P1;HPM_P2
2022/04/23 00:01:13;;;;;;;12.97;9.03;;;;;;;;;;4968248;28;20194;-86
2022/04/23 00:03:39;;;;;;;11.03;9.87;;;;;;;;;;4969607;28;20426;-87
2022/04/23 00:06:05;;;;;;;11.10;8.73;;;;;;;;;;4982400;28;20444;-86
2022/04/23 00:08:31;;;;;;;11.95;9.43;;;;;;;;;;4985438;28;20184;-86
2022/04/23 00:10:58;;;;;;;14.20;9.98;;;;;;;;;;4984718;28;20187;-85
2022/04/23 00:13:24;;;;;;;15.05;9.25;;;;;;;;;;4979014;28;20184;-87
2022/04/23 00:15:50;;;;;;;10.57;8.93;;;;;;;;;;4964962;28;20239;-87
2022/04/23 00:18:18;;;;;;;11.47;8.57;;;;;;;;;;4966528;28;20247;-87
2022/04/23 00:20:46;;;;;;;9.98;8.73;;;;;;;;;;4966445;28;20447;-87
2022/04/23 00:23:12;;;;;;;9.82;7.85;;;;;;;;;;4970017;28;20266;-87
2022/04/23 00:25:38;;;;;;;10.07;8.30;;;;;;;;;;4965560;28;20266;-87
2022/04/23 00:28:04;;;;;;;14.23;9.93;;;;;;;;;;4968772;28;20191;-86
2022/04/23 00:30:30;;;;;;;15.32;9.68;;;;;;;;;;4964420;28;20238;-87
2022/04/23 00:33:00;;;;;;;10.43;9.05;;;;;;;;;;4965572;28;20231;-87
2022/04/23 00:35:26;;;;;;;12.40;8.15;;;;;;;;;;4967075;28;20268;-86
2022/04/23 00:37:52;;;;;;;9.13;7.65;;;;;;;;;;4966190;28;20199;-87
2022/04/23 00:40:18;;;;;;;12.63;9.82;;;;;;;;;;4967442;28;20203;-87
2022/04/23 00:42:45;;;;;;;13.10;8.80;;;;;;;;;;4966058;28;20188;-87
2022/04/23 00:45:11;;;;;;;12.45;9.05;;;;;;;;;;4964484;28;20260;-87
2022/04/23 00:47:38;;;;;;;11.13;10.03;;;;;;;;;;4966471;28;20183;-87
2022/04/23 00:50:04;;;;;;;12.20;9.13;;;;;;;;;;4968170;28;20427;-88
2022/04/23 00:52:32;;;;;;;12.95;9.50;;;;;;;;;;4968734;28;20653;-87
2022/04/23 00:54:58;;;;;;;11.27;8.68;;;;;;;;;;4970593;28;20235;-87
2022/04/23 00:57:24;;;;;;;15.25;10.23;;;;;;;;;;4969029;28;20231;-87
2022/04/23 00:59:51;;;;;;;11.98;9.20;;;;;;;;;;4966806;28;20274;-87
2022/04/23 01:02:17;;;;;;;12.82;9.82;;;;;;;;;;4967980;28;20183;-87
2022/04/23 01:04:44;;;;;;;12.73;8.67;;;;;;;;;;4969127;28;20187;-88
2022/04/23 01:07:11;;;;;;;12.50;9.90;;;;;;;;;;4968859;28;20445;-87
2022/04/23 01:09:37;;;;;;;15.02;9.57;;;;;;;;;;4968312;28;20187;-88
2022/04/23 01:12:03;;;;;;;15.27;9.50;;;;;;;;;;4964910;28;20180;-88
2022/04/23 01:14:32;;;;;;;12.25;9.20;;;;;;;;;;4967364;28;20179;-87
2022/04/23 01:16:58;;;;;;;12.30;10.07;;;;;;;;;;4967233;28;20235;-87
2022/04/23 01:19:25;;;;;;;13.25;9.07;;;;;;;;;;4964387;28;20191;-86
2022/04/23 01:21:51;;;;;;;12.35;9.50;;;;;;;;;;4967250;28;20184;-87
2022/04/23 01:24:18;;;;;;;12.73;10.43;;;;;;;;;;4975600;28;20206;-87
2022/04/23 01:26:44;;;;;;;12.35;9.90;;;;;;;;;;4965332;28;20179;-87
2022/04/23 01:29:10;;;;;;;12.98;9.40;;;;;;;;;;4974950;28;20255;-87
2022/04/23 01:31:36;;;;;;;14.48;10.55;;;;;;;;;;4964268;28;20212;-87
2022/04/23 01:34:04;;;;;;;14.50;10.80;;;;;;;;;;4966311;28;20219;-87
2022/04/23 01:36:30;;;;;;;12.35;10.13;;;;;;;;;;4966567;28;20514;-87
2022/04/23 01:38:56;;;;;;;16.13;10.23;;;;;;;;;;4969525;28;20230;-88
2022/04/23 01:41:22;;;;;;;12.77;9.52;;;;;;;;;;4967616;28;20179;-88
2022/04/23 01:43:48;;;;;;;11.23;9.18;;;;;;;;;;4963486;28;20263;-87
2022/04/23 01:46:14;;;;;;;14.98;10.45;;;;;;;;;;4965917;28;20211;-88
2022/04/23 01:48:40;;;;;;;12.02;10.00;;;;;;;;;;4963890;28;20195;-87
2022/04/23 01:51:06;;;;;;;14.05;11.00;;;;;;;;;;4964964;28;20184;-87
2022/04/23 01:53:32;;;;;;;14.85;10.48;;;;;;;;;;4966458;28;20251;-87
2022/04/23 01:55:59;;;;;;;13.30;11.30;;;;;;;;;;4970635;28;20179;-88
2022/04/23 01:58:25;;;;;;;12.70;9.50;;;;;;;;;;4985091;28;20215;-87
2022/04/23 02:00:52;;;;;;;13.70;10.38;;;;;;;;;;4987151;28;20207;-87
2022/04/23 02:03:18;;;;;;;12.75;10.90;;;;;;;;;;4970450;28;20195;-87
2022/04/23 02:05:44;;;;;;;14.10;9.65;;;;;;;;;;4985550;28;20172;-87
2022/04/23 02:08:14;;;;;;;14.52;11.70;;;;;;;;;;4984930;28;20279;-88
2022/04/23 02:10:40;;;;;;;15.27;10.90;;;;;;;;;;4965441;28;20196;-88
2022/04/23 02:13:06;;;;;;;16.83;10.50;;;;;;;;;;4956654;29;20188;-88
2022/04/23 02:15:32;;;;;;;11.93;10.15;;;;;;;;;;4973128;28;20226;-87
2022/04/23 02:17:58;;;;;;;13.93;10.90;;;;;;;;;;4968776;28;20220;-88
2022/04/23 02:20:25;;;;;;;16.88;10.80;;;;;;;;;;4971712;28;20192;-87
2022/04/23 02:22:51;;;;;;;14.55;10.25;;;;;;;;;;4969423;28;20180;-87
2022/04/23 02:25:19;;;;;;;15.48;11.02;;;;;;;;;;4969621;28;20203;-88
2022/04/23 02:27:46;;;;;;;15.90;11.13;;;;;;;;;;4970053;28;20183;-87
2022/04/23 02:30:13;;;;;;;13.02;11.48;;;;;;;;;;4969470;28;20192;-87
2022/04/23 02:32:39;;;;;;;17.35;11.93;;;;;;;;;;4973328;28;20175;-88
2022/04/23 02:35:05;;;;;;;14.45;11.43;;;;;;;;;;4970148;28;20188;-87
2022/04/23 02:37:34;;;;;;;13.73;11.82;;;;;;;;;;4973222;28;20215;-87
2022/04/23 02:40:00;;;;;;;14.30;11.27;;;;;;;;;;4969535;28;20198;-87
2022/04/23 02:42:26;;;;;;;14.95;11.65;;;;;;;;;;4970271;28;20219;-87
2022/04/23 02:44:52;;;;;;;15.32;11.32;;;;;;;;;;4968502;28;20184;-88
2022/04/23 02:47:18;;;;;;;15.60;12.23;;;;;;;;;;4970624;28;20199;-87
2022/04/23 02:49:44;;;;;;;17.50;12.25;;;;;;;;;;4969263;28;20446;-88
2022/04/23 02:52:10;;;;;;;14.98;11.23;;;;;;;;;;4970113;28;20256;-88
2022/04/23 02:54:37;;;;;;;16.38;11.43;;;;;;;;;;4969430;28;20191;-88
2022/04/23 02:57:04;;;;;;;13.60;10.57;;;;;;;;;;4994126;28;20196;-87
2022/04/23 02:59:30;;;;;;;15.10;11.35;;;;;;;;;;4986321;28;20172;-88
2022/04/23 03:01:56;;;;;;;18.60;11.13;;;;;;;;;;4972785;28;20194;-87
2022/04/23 03:04:22;;;;;;;13.48;11.43;;;;;;;;;;4979579;28;20206;-87
2022/04/23 03:06:48;;;;;;;14.88;11.80;;;;;;;;;;4983663;28;20199;-88
2022/04/23 03:09:14;;;;;;;13.98;11.10;;;;;;;;;;4984339;28;20224;-88
2022/04/23 03:11:40;;;;;;;16.10;12.17;;;;;;;;;;4995286;28;20240;-87
2022/04/23 03:14:06;;;;;;;15.65;12.00;;;;;;;;;;4985474;28;20491;-88
2022/04/23 03:16:32;;;;;;;16.20;10.60;;;;;;;;;;4980783;28;20222;-86
2022/04/23 03:18:58;;;;;;;15.47;10.83;;;;;;;;;;4988439;28;20438;-87
2022/04/23 03:21:24;;;;;;;13.73;10.57;;;;;;;;;;4992956;28;20438;-87
2022/04/23 03:23:50;;;;;;;15.73;12.07;;;;;;;;;;4986196;28;20430;-87
2022/04/23 03:26:16;;;;;;;15.02;11.63;;;;;;;;;;4974449;28;20449;-87
2022/04/23 03:28:42;;;;;;;16.17;10.38;;;;;;;;;;4990214;28;20192;-87
2022/04/23 03:31:09;;;;;;;17.63;12.10;;;;;;;;;;4990912;28;20198;-88
2022/04/23 03:33:35;;;;;;;15.23;12.20;;;;;;;;;;4990476;28;20225;-88
2022/04/23 03:36:01;;;;;;;15.63;11.60;;;;;;;;;;4990850;28;20195;-88
2022/04/23 03:38:27;;;;;;;18.60;11.80;;;;;;;;;;4988187;28;20214;-88
2022/04/23 03:40:54;;;;;;;12.23;10.75;;;;;;;;;;5001045;28;20180;-88
2022/04/23 03:43:26;;;;;;;13.98;11.35;;;;;;;;;;4989939;28;20186;-88
2022/04/23 03:45:52;;;;;;;23.95;13.02;;;;;;;;;;4991058;28;20183;-88
2022/04/23 03:48:19;;;;;;;17.13;12.20;;;;;;;;;;4989437;28;20218;-88
2022/04/23 03:50:45;;;;;;;13.43;11.82;;;;;;;;;;4991250;28;20238;-88
2022/04/23 03:53:11;;;;;;;13.63;11.40;;;;;;;;;;4989443;28;20187;-88
2022/04/23 03:55:37;;;;;;;14.68;11.20;;;;;;;;;;4996492;28;20199;-87
2022/04/23 03:58:03;;;;;;;15.90;12.65;;;;;;;;;;4990587;28;20207;-88
2022/04/23 04:00:30;;;;;;;17.92;11.45;;;;;;;;;;4990115;28;20198;-88
2022/04/23 04:02:56;;;;;;;17.38;12.48;;;;;;;;;;4986995;28;20191;-88
2022/04/23 04:05:23;;;;;;;21.55;11.80;;;;;;;;;;4984163;28;20187;-88
2022/04/23 04:07:49;;;;;;;17.05;12.00;;;;;;;;;;4989655;28;20200;-89
2022/04/23 04:10:22;;;;;;;16.20;11.43;;;;;;;;;;4996244;28;20198;-88
2022/04/23 04:12:48;;;;;;;15.68;10.35;;;;;;;;;;4989331;28;20258;-88
2022/04/23 04:15:20;;;;;;;14.23;11.45;;;;;;;;;;4988574;28;20213;-86
2022/04/23 04:17:47;;;;;;;14.23;11.00;;;;;;;;;;4985109;28;20203;-87
2022/04/23 04:20:15;;;;;;;14.30;10.05;;;;;;;;;;4987512;28;20246;-88
2022/04/23 04:22:41;;;;;;;13.73;11.35;;;;;;;;;;4989555;28;20190;-88
2022/04/23 04:25:08;;;;;;;13.45;10.43;;;;;;;;;;4988995;28;20298;-88
2022/04/23 04:27:35;;;;;;;15.10;12.25;;;;;;;;;;4989716;28;20221;-88
2022/04/23 04:30:02;;;;;;;13.32;11.05;;;;;;;;;;4985175;28;20203;-88
2022/04/23 04:32:28;;;;;;;11.52;10.07;;;;;;;;;;4988585;28;20206;-88
2022/04/23 04:34:54;;;;;;;16.87;10.90;;;;;;;;;;4993542;28;20185;-88
2022/04/23 04:37:20;;;;;;;13.20;10.18;;;;;;;;;;4988757;28;20537;-88
2022/04/23 04:39:46;;;;;;;14.38;10.95;;;;;;;;;;5000011;28;20187;-89
2022/04/23 04:42:12;;;;;;;16.38;11.75;;;;;;;;;;4984296;28;20184;-88
2022/04/23 04:44:38;;;;;;;22.73;11.73;;;;;;;;;;4986301;28;20187;-88
2022/04/23 04:47:05;;;;;;;12.10;9.93;;;;;;;;;;4982935;28;20211;-89
2022/04/23 04:49:31;;;;;;;14.02;10.70;;;;;;;;;;4995435;28;20554;-89
2022/04/23 04:51:57;;;;;;;14.40;12.10;;;;;;;;;;4992810;28;20278;-88
2022/04/23 04:54:23;;;;;;;16.10;10.55;;;;;;;;;;4995521;28;20265;-88
2022/04/23 04:56:50;;;;;;;17.73;12.50;;;;;;;;;;4984563;28;20322;-88
2022/04/23 04:59:16;;;;;;;13.93;12.18;;;;;;;;;;4988511;28;20372;-88
2022/04/23 05:01:42;;;;;;;12.38;10.40;;;;;;;;;;4988480;28;20183;-88
2022/04/23 05:04:08;;;;;;;15.43;10.80;;;;;;;;;;4988272;28;20214;-88
2022/04/23 05:06:34;;;;;;;15.40;11.88;;;;;;;;;;4988563;28;20203;-87
2022/04/23 05:09:00;;;;;;;15.98;11.85;;;;;;;;;;4984421;28;20636;-88
2022/04/23 05:11:26;;;;;;;14.90;10.80;;;;;;;;;;4987435;28;20199;-89
2022/04/23 05:13:53;;;;;;;11.65;9.05;;;;;;;;;;4987469;28;20179;-89
2022/04/23 05:16:19;;;;;;;11.70;9.90;;;;;;;;;;4988437;28;20578;-89
2022/04/23 05:18:45;;;;;;;15.63;11.85;;;;;;;;;;4988477;28;20218;-89
2022/04/23 05:21:11;;;;;;;11.33;9.43;;;;;;;;;;4987368;28;20187;-90
2022/04/23 05:23:38;;;;;;;13.45;9.68;;;;;;;;;;4985672;28;21015;-89
2022/04/23 05:26:04;;;;;;;14.90;10.40;;;;;;;;;;4986577;28;20179;-89
2022/04/23 05:28:31;;;;;;;11.57;9.35;;;;;;;;;;4988968;28;20193;-89
2022/04/23 05:30:57;;;;;;;13.60;9.93;;;;;;;;;;4999772;28;20203;-89
2022/04/23 05:33:23;;;;;;;13.85;9.73;;;;;;;;;;4991822;28;20191;-89
2022/04/23 05:35:49;;;;;;;12.75;9.55;;;;;;;;;;4988173;28;20218;-89
2022/04/23 05:38:15;;;;;;;13.80;11.18;;;;;;;;;;4991055;28;20203;-90
2022/04/23 05:40:41;;;;;;;12.15;8.65;;;;;;;;;;4992559;28;20201;-90
2022/04/23 05:43:07;;;;;;;11.45;8.98;;;;;;;;;;4992143;28;20188;-88
2022/04/23 05:45:34;;;;;;;10.30;8.80;;;;;;;;;;4993756;28;20183;-90
2022/04/23 05:48:00;;;;;;;12.30;9.50;;;;;;;;;;4988631;28;20183;-90
2022/04/23 05:50:26;;;;;;;9.30;8.32;;;;;;;;;;5008889;28;20179;-87
2022/04/23 05:52:52;;;;;;;11.35;8.40;;;;;;;;;;4976939;28;20187;-93
2022/04/23 05:55:18;;;;;;;10.77;8.77;;;;;;;;;;4992049;28;20282;-90
2022/04/23 05:57:44;;;;;;;10.97;8.87;;;;;;;;;;4995737;28;20651;-89
2022/04/23 06:00:11;;;;;;;12.40;9.40;;;;;;;;;;4989391;28;20439;-91
2022/04/23 06:02:37;;;;;;;10.52;9.02;;;;;;;;;;4991977;28;20203;-90
2022/04/23 06:05:03;;;;;;;12.40;9.88;;;;;;;;;;5007730;28;20203;-90
2022/04/23 06:07:30;;;;;;;10.45;9.38;;;;;;;;;;5005434;28;20187;-89
2022/04/23 06:09:56;;;;;;;9.80;8.73;;;;;;;;;;4990649;28;20242;-91
2022/04/23 06:12:22;;;;;;;9.02;8.13;;;;;;;;;;4996965;28;20541;-91
2022/04/23 06:14:51;;;;;;;10.27;9.30;;;;;;;;;;4988021;28;20645;-90
2022/04/23 06:17:23;;;;;;;12.07;9.95;;;;;;;;;;4975195;28;20231;-90
2022/04/23 06:19:49;;;;;;;11.18;8.82;;;;;;;;;;5003911;28;20183;-90
2022/04/23 06:22:15;;;;;;;12.00;9.70;;;;;;;;;;4992128;28;20192;-90
2022/04/23 06:24:41;;;;;;;10.05;8.77;;;;;;;;;;4992421;28;20442;-89
2022/04/23 06:27:07;;;;;;;10.45;8.05;;;;;;;;;;4996239;28;20708;-90
2022/04/23 06:29:33;;;;;;;11.93;8.77;;;;;;;;;;4989686;28;20179;-89
2022/04/23 06:31:59;;;;;;;12.30;9.23;;;;;;;;;;4978465;28;20659;-88
2022/04/23 06:34:25;;;;;;;12.45;8.95;;;;;;;;;;4991680;28;20447;-89
2022/04/23 06:36:51;;;;;;;11.38;8.80;;;;;;;;;;5000181;28;20223;-88
2022/04/23 06:39:20;;;;;;;11.75;9.65;;;;;;;;;;4986627;28;20179;-90
2022/04/23 06:41:46;;;;;;;11.57;9.43;;;;;;;;;;4987588;28;20186;-88
2022/04/23 06:44:12;;;;;;;14.85;9.80;;;;;;;;;;4990228;28;20167;-90
2022/04/23 06:46:38;;;;;;;10.95;9.05;;;;;;;;;;5008646;28;20198;-89
2022/04/23 06:49:06;;;;;;;9.93;8.60;;;;;;;;;;4993105;28;20195;-90
2022/04/23 06:51:33;;;;;;;10.18;8.85;;;;;;;;;;5003836;28;20179;-89
2022/04/23 06:53:59;;;;;;;9.80;8.18;;;;;;;;;;4988496;28;20380;-87
2022/04/23 06:56:26;;;;;;;9.87;8.10;;;;;;;;;;5016343;28;20236;-90
2022/04/23 06:58:52;;;;;;;11.30;8.75;;;;;;;;;;4990249;28;20462;-86
2022/04/23 07:01:18;;;;;;;11.00;9.03;;;;;;;;;;5000395;28;20226;-88
2022/04/23 07:03:44;;;;;;;12.30;8.35;;;;;;;;;;4985717;28;20434;-87
2022/04/23 07:06:11;;;;;;;9.37;8.30;;;;;;;;;;4989355;28;20191;-89
2022/04/23 07:08:40;;;;;;;11.48;8.75;;;;;;;;;;4991920;28;21155;-88
2022/04/23 07:11:06;;;;;;;9.52;8.60;;;;;;;;;;4988685;28;20206;-88
2022/04/23 07:13:33;;;;;;;9.75;8.63;;;;;;;;;;5000766;28;20187;-89
2022/04/23 07:15:59;;;;;;;8.93;8.00;;;;;;;;;;5000007;28;20219;-86
2022/04/23 07:18:25;;;;;;;12.77;8.20;;;;;;;;;;4987681;28;20207;-87
2022/04/23 07:20:51;;;;;;;10.13;8.13;;;;;;;;;;4986317;28;20219;-91
2022/04/23 07:26:02;;;;;;;10.20;8.68;;;;;;;;;;5005447;28;20242;-88
2022/04/23 07:28:28;;;;;;;13.98;10.50;;;;;;;;;;4986270;28;20218;-91
2022/04/23 07:30:54;;;;;;;11.95;9.23;;;;;;;;;;4987145;28;20187;-90
2022/04/23 07:38:51;;;;;;;16.30;9.35;;;;;;;;;;5004302;28;20227;-93
2022/04/23 07:41:18;;;;;;;12.98;9.77;;;;;;;;;;4988102;28;20750;-91
2022/04/23 07:43:44;;;;;;;12.13;9.85;;;;;;;;;;5002898;28;20205;-87
2022/04/23 07:46:10;;;;;;;12.40;9.73;;;;;;;;;;4995153;28;20207;-90
2022/04/23 07:48:36;;;;;;;12.90;10.17;;;;;;;;;;4994432;28;20207;-88
2022/04/23 07:51:03;;;;;;;10.95;9.15;;;;;;;;;;4983255;28;20446;-86
2022/04/23 07:53:29;;;;;;;12.35;8.55;;;;;;;;;;4983868;28;20175;-91
2022/04/23 07:55:55;;;;;;;11.18;8.75;;;;;;;;;;4985754;28;20183;-88
2022/04/23 07:58:21;;;;;;;9.70;7.82;;;;;;;;;;4994346;28;20215;-88
2022/04/23 08:00:47;;;;;;;10.50;9.43;;;;;;;;;;4984618;28;20194;-90
2022/04/23 08:03:14;;;;;;;10.63;8.98;;;;;;;;;;4984404;28;20215;-91
2022/04/23 08:05:40;;;;;;;10.05;8.65;;;;;;;;;;4986043;28;20250;-91
2022/04/23 08:08:06;;;;;;;9.63;8.65;;;;;;;;;;4987990;28;20183;-90
2022/04/23 08:10:32;;;;;;;11.18;9.10;;;;;;;;;;4984491;28;20207;-88
2022/04/23 08:12:58;;;;;;;10.52;9.43;;;;;;;;;;4988390;28;20191;-88
2022/04/23 08:15:26;;;;;;;13.35;9.68;;;;;;;;;;4990777;28;20185;-89
2022/04/23 08:17:52;;;;;;;10.13;8.73;;;;;;;;;;4985803;28;20227;-88
2022/04/23 08:20:18;;;;;;;9.85;8.75;;;;;;;;;;4988999;28;20212;-89
2022/04/23 08:22:44;;;;;;;12.17;10.83;;;;;;;;;;5000494;28;20211;-89
2022/04/23 08:25:10;;;;;;;9.60;8.70;;;;;;;;;;4986142;28;20460;-90
2022/04/23 08:27:53;;;;;;;9.60;8.30;;;;;;;;;;4993072;28;20447;-91
2022/04/23 08:30:35;;;;;;;9.70;8.70;;;;;;;;;;4989913;28;20218;-90
2022/04/23 08:33:02;;;;;;;11.27;9.50;;;;;;;;;;4971908;28;20744;-89
2022/04/23 08:35:28;;;;;;;11.32;10.10;;;;;;;;;;4984553;28;20255;-86
2022/04/23 08:37:54;;;;;;;9.57;8.17;;;;;;;;;;5003535;28;20249;-88
2022/04/23 08:40:21;;;;;;;11.25;9.40;;;;;;;;;;4972474;28;20472;-91
2022/04/23 08:42:47;;;;;;;10.60;9.50;;;;;;;;;;4993840;28;20214;-92
2022/04/23 08:45:13;;;;;;;10.67;9.20;;;;;;;;;;5002167;28;20444;-93
2022/04/23 08:47:44;;;;;;;10.05;8.43;;;;;;;;;;4986169;28;20420;-90
2022/04/23 08:50:10;;;;;;;11.38;8.38;;;;;;;;;;5003303;28;20233;-90
2022/04/23 08:52:39;;;;;;;10.23;9.15;;;;;;;;;;4986773;28;20193;-90
2022/04/23 08:55:06;;;;;;;10.73;9.60;;;;;;;;;;4986589;28;20194;-86
2022/04/23 08:57:32;;;;;;;12.48;11.18;;;;;;;;;;4988163;28;20278;-91
2022/04/23 08:59:59;;;;;;;11.00;9.45;;;;;;;;;;4984854;28;20189;-89
2022/04/23 09:02:26;;;;;;;11.48;10.38;;;;;;;;;;4987983;28;20179;-88
2022/04/23 09:04:54;;;;;;;13.75;10.68;;;;;;;;;;4983733;28;20198;-92
2022/04/23 09:07:27;;;;;;;11.75;10.55;;;;;;;;;;4987411;28;20229;-92
2022/04/23 09:09:59;;;;;;;9.95;8.95;;;;;;;;;;4983544;28;20216;-89
2022/04/23 09:12:44;;;;;;;13.85;10.07;;;;;;;;;;4987364;28;20188;-89
2022/04/23 09:23:54;;;;;;;13.30;11.45;;;;;;;;;;5000274;28;20210;-90
2022/04/23 09:26:33;;;;;;;12.70;9.98;;;;;;;;;;5002364;28;20186;-94
2022/04/23 09:29:02;;;;;;;12.07;10.20;;;;;;;;;;4987337;28;20189;-93
2022/04/23 09:31:34;;;;;;;14.18;11.68;;;;;;;;;;4980250;28;20198;-87
2022/04/23 09:34:23;;;;;;;11.82;10.63;;;;;;;;;;4988946;28;20193;-89
2022/04/23 09:36:57;;;;;;;13.48;10.50;;;;;;;;;;4977042;28;20194;-87
2022/04/23 09:39:34;;;;;;;12.82;10.73;;;;;;;;;;4983831;28;20191;-91
2022/04/23 09:42:19;;;;;;;11.38;10.18;;;;;;;;;;4994801;28;20176;-93
2022/04/23 09:44:46;;;;;;;10.80;9.45;;;;;;;;;;4982572;28;20255;-90
2022/04/23 09:47:29;;;;;;;12.30;11.10;;;;;;;;;;4987688;28;20192;-91
2022/04/23 09:49:55;;;;;;;15.75;11.25;;;;;;;;;;4997713;28;20207;-89
2022/04/23 09:52:26;;;;;;;11.45;9.85;;;;;;;;;;4992443;28;20202;-92
2022/04/23 09:54:52;;;;;;;14.55;9.57;;;;;;;;;;4983976;28;20203;-90
2022/04/23 09:57:19;;;;;;;11.20;9.95;;;;;;;;;;4981977;28;20214;-89
2022/04/23 09:59:45;;;;;;;10.95;9.75;;;;;;;;;;4980192;28;20184;-90
2022/04/23 10:02:15;;;;;;;12.20;10.90;;;;;;;;;;4972766;28;20202;-92
2022/04/23 10:04:41;;;;;;;12.90;11.50;;;;;;;;;;4982748;28;20197;-90
2022/04/23 10:07:08;;;;;;;12.60;11.10;;;;;;;;;;4978478;28;20195;-88
2022/04/23 10:09:39;;;;;;;11.98;10.77;;;;;;;;;;4983245;28;20450;-90
2022/04/23 10:12:10;;;;;;;12.88;11.50;;;;;;;;;;4985529;28;20241;-92
2022/04/23 10:14:40;;;;;;;11.95;9.65;;;;;;;;;;4986004;28;20175;-90
2022/04/23 10:17:09;;;;;;;11.98;10.88;;;;;;;;;;4986208;28;20250;-91
2022/04/23 10:19:35;;;;;;;12.57;10.88;;;;;;;;;;4989735;28;20183;-84
2022/04/23 10:22:19;;;;;;;13.32;10.55;;;;;;;;;;4989653;28;20178;-91
2022/04/23 10:25:04;;;;;;;15.23;10.38;;;;;;;;;;4995769;28;20237;-89
2022/04/23 10:27:30;;;;;;;12.60;10.43;;;;;;;;;;4993027;28;20179;-92
2022/04/23 10:30:00;;;;;;;11.15;10.10;;;;;;;;;;4999401;28;20184;-88
2022/04/23 10:32:26;;;;;;;11.27;10.18;;;;;;;;;;5006964;28;20174;-91
2022/04/23 10:34:53;;;;;;;11.90;10.70;;;;;;;;;;5003407;28;20202;-90
2022/04/23 10:37:19;;;;;;;10.98;9.82;;;;;;;;;;4991837;28;20300;-90
2022/04/23 10:39:46;;;;;;;10.20;9.30;;;;;;;;;;4985263;28;20274;-93
2022/04/23 10:42:13;;;;;;;11.35;9.77;;;;;;;;;;4992526;28;20278;-91
2022/04/23 10:44:39;;;;;;;12.30;11.07;;;;;;;;;;4994827;28;20170;-91
2022/04/23 10:47:16;;;;;;;10.20;9.10;;;;;;;;;;4994068;28;20195;-91
2022/04/23 10:49:43;;;;;;;11.20;9.88;;;;;;;;;;4983242;28;20186;-88
2022/04/23 10:52:09;;;;;;;13.95;10.60;;;;;;;;;;4987729;28;20198;-90
2022/04/23 10:54:42;;;;;;;9.88;8.82;;;;;;;;;;4989976;28;20486;-91
2022/04/23 10:57:09;;;;;;;10.85;9.05;;;;;;;;;;4985222;28;20204;-89
2022/04/23 10:59:38;;;;;;;11.15;9.95;;;;;;;;;;4994610;28;20171;-91
2022/04/23 11:02:13;;;;;;;14.43;10.73;;;;;;;;;;4986380;28;20178;-95
2022/04/23 11:13:31;;;;;;;9.95;8.70;;;;;;;;;;4945791;29;20204;-89
2022/04/23 11:16:06;;;;;;;11.82;10.48;;;;;;;;;;4926726;29;20234;-84
2022/04/23 11:18:33;;;;;;;11.35;9.35;;;;;;;;;;4952266;29;20214;-88
2022/04/23 11:21:26;;;;;;;10.05;9.10;;;;;;;;;;4927809;29;20233;-91
2022/04/23 11:23:53;;;;;;;10.02;8.88;;;;;;;;;;4930020;29;20257;-89
2022/04/23 11:26:26;;;;;;;10.27;9.00;;;;;;;;;;4932174;29;20222;-91
2022/04/23 11:28:59;;;;;;;9.65;8.65;;;;;;;;;;4947178;29;20194;-90
2022/04/23 11:31:25;;;;;;;10.15;9.15;;;;;;;;;;4928748;29;20290;-91
2022/04/23 11:33:51;;;;;;;9.20;8.30;;;;;;;;;;4920935;29;20201;-92
2022/04/23 11:36:26;;;;;;;9.13;8.30;;;;;;;;;;4927261;29;20198;-92
2022/04/23 11:38:53;;;;;;;16.13;9.55;;;;;;;;;;4947568;29;20462;-91
2022/04/23 11:41:31;;;;;;;13.25;11.38;;;;;;;;;;4940471;29;20606;-88
2022/04/23 11:43:57;;;;;;;9.05;8.18;;;;;;;;;;4939991;28;20208;-89
2022/04/23 11:46:23;;;;;;;9.85;8.85;;;;;;;;;;5010332;28;20219;-88
2022/04/23 11:48:50;;;;;;;10.63;9.63;;;;;;;;;;5012516;28;20191;-90
2022/04/23 11:51:18;;;;;;;9.45;8.57;;;;;;;;;;4998666;28;20186;-90
2022/04/23 11:53:52;;;;;;;8.30;7.47;;;;;;;;;;4986346;28;20189;-90
2022/04/23 11:56:25;;;;;;;10.07;9.07;;;;;;;;;;4988548;28;20184;-89
2022/04/23 11:58:52;;;;;;;9.45;7.97;;;;;;;;;;4996769;28;20238;-85
2022/04/23 12:01:19;;;;;;;8.07;7.28;;;;;;;;;;5006435;28;20193;-82
2022/04/23 12:03:49;;;;;;;7.53;6.63;;;;;;;;;;5000979;28;20185;-89
2022/04/23 12:06:15;;;;;;;8.95;8.05;;;;;;;;;;5002041;28;20186;-94
2022/04/23 12:08:41;;;;;;;8.63;7.72;;;;;;;;;;4998440;28;20264;-82
2022/04/23 12:11:20;;;;;;;8.80;7.80;;;;;;;;;;4982400;28;20664;-92
2022/04/23 12:13:49;;;;;;;6.90;6.30;;;;;;;;;;4977505;28;20466;-91
2022/04/23 12:16:30;;;;;;;7.07;6.38;;;;;;;;;;4979770;28;20233;-90
2022/04/23 12:19:01;;;;;;;6.65;6.07;;;;;;;;;;4996223;28;20443;-86
2022/04/23 12:21:27;;;;;;;7.20;4.80;;;;;;;;;;4989618;28;20278;-88
2022/04/23 12:23:53;;;;;;;4.70;3.70;;;;;;;;;;4986900;28;20429;-85
2022/04/23 12:26:21;;;;;;;3.70;3.13;;;;;;;;;;5005651;28;20434;-86
2022/04/23 12:42:23;;;;;;;2.97;2.77;;;;;;;;;;5001594;28;20445;-90
2022/04/23 12:44:51;;;;;;;3.80;3.30;;;;;;;;;;4984758;28;20412;-86
2022/04/23 12:47:26;;;;;;;3.50;3.20;;;;;;;;;;4975963;28;20455;-90
2022/04/23 12:49:57;;;;;;;3.77;2.57;;;;;;;;;;5001948;28;20400;-92
2022/04/23 12:52:31;;;;;;;3.10;2.10;;;;;;;;;;5006273;28;21060;-90
2022/04/23 12:55:21;;;;;;;2.47;2.27;;;;;;;;;;4983474;28;20498;-87
2022/04/23 12:57:59;;;;;;;2.53;2.43;;;;;;;;;;5008383;28;20447;-89
2022/04/23 13:00:26;;;;;;;3.30;2.43;;;;;;;;;;5004365;28;20474;-87
2022/04/23 13:02:55;;;;;;;3.73;2.80;;;;;;;;;;4989989;28;20903;-90
2022/04/23 13:05:21;;;;;;;7.70;2.70;;;;;;;;;;4972547;28;20821;-90
2022/04/23 13:10:33;;;;;;;3.70;2.73;;;;;;;;;;4999939;28;20419;-86
2022/04/23 13:12:59;;;;;;;2.90;2.70;;;;;;;;;;5002499;28;20410;-86
2022/04/23 13:15:26;;;;;;;5.07;3.10;;;;;;;;;;5000830;28;20436;-92
2022/04/23 13:17:55;;;;;;;3.67;2.53;;;;;;;;;;4980799;28;20470;-94
2022/04/23 13:20:21;;;;;;;3.73;2.97;;;;;;;;;;5000711;28;20513;-88
2022/04/23 13:22:47;;;;;;;2.67;2.47;;;;;;;;;;4983857;28;20436;-86
2022/04/23 13:25:14;;;;;;;2.93;2.73;;;;;;;;;;4986647;28;20427;-88
2022/04/23 13:27:41;;;;;;;2.93;2.60;;;;;;;;;;4983979;28;20446;-94
2022/04/23 13:30:07;;;;;;;3.10;2.83;;;;;;;;;;4984965;28;20449;-89
2022/04/23 13:32:38;;;;;;;2.97;2.63;;;;;;;;;;4985320;28;20404;-87
2022/04/23 13:35:04;;;;;;;2.80;2.60;;;;;;;;;;4984467;28;20739;-88
2022/04/23 13:37:30;;;;;;;4.20;3.70;;;;;;;;;;4984170;28;20462;-86
2022/04/23 13:39:57;;;;;;;5.50;3.97;;;;;;;;;;4998556;28;20731;-87
2022/04/23 13:42:25;;;;;;;3.60;3.30;;;;;;;;;;4983972;28;20816;-87
2022/04/23 13:44:51;;;;;;;5.00;3.80;;;;;;;;;;5003314;28;20439;-82
2022/04/23 13:47:17;;;;;;;5.90;3.93;;;;;;;;;;4985600;28;20425;-87
2022/04/23 13:49:43;;;;;;;4.27;3.90;;;;;;;;;;4984799;28;20409;-83
2022/04/23 13:52:09;;;;;;;5.00;4.20;;;;;;;;;;5002520;28;20432;-88
2022/04/23 13:54:36;;;;;;;4.30;4.00;;;;;;;;;;4985331;28;20465;-82
2022/04/23 13:57:03;;;;;;;3.83;3.00;;;;;;;;;;5005526;28;20415;-86
2022/04/23 13:59:29;;;;;;;4.70;3.53;;;;;;;;;;5006696;28;20388;-89
2022/04/23 14:10:09;;;;;;;3.87;2.83;;;;;;;;;;5004355;28;20427;-88
2022/04/23 14:12:36;;;;;;;3.43;2.57;;;;;;;;;;5000828;28;20441;-87
2022/04/23 14:15:02;;;;;;;4.50;2.93;;;;;;;;;;4987437;28;20441;-89
2022/04/23 14:17:28;;;;;;;3.23;2.63;;;;;;;;;;5006908;28;20504;-88
2022/04/23 14:19:54;;;;;;;3.25;2.80;;;;;;;;;;5005829;28;20513;-87
2022/04/23 14:22:20;;;;;;;4.30;3.55;;;;;;;;;;5005189;28;20182;-89
2022/04/23 14:24:46;;;;;;;3.10;2.83;;;;;;;;;;5000528;28;20186;-88
2022/04/23 14:27:13;;;;;;;3.57;2.50;;;;;;;;;;4985600;28;20432;-88
2022/04/23 14:29:39;;;;;;;4.25;2.58;;;;;;;;;;4987177;28;20421;-82
2022/04/23 14:32:05;;;;;;;2.70;2.37;;;;;;;;;;4999307;28;20204;-90
2022/04/23 14:34:34;;;;;;;3.25;2.30;;;;;;;;;;5002094;28;20426;-89
2022/04/23 14:37:01;;;;;;;14.00;4.88;;;;;;;;;;4999795;28;20195;-81
2022/04/23 14:39:27;;;;;;;5.18;4.40;;;;;;;;;;4999088;28;20546;-79
2022/04/23 14:41:53;;;;;;;8.55;5.57;;;;;;;;;;4999292;28;20542;-77
2022/04/23 14:44:19;;;;;;;8.77;4.60;;;;;;;;;;4993199;28;20204;-78
2022/04/23 14:46:46;;;;;;;193.00;19.52;;;;;;;;;;4999411;28;20213;-80
2022/04/23 14:49:12;;;;;;;54.72;5.97;;;;;;;;;;5002581;28;20210;-78
2022/04/23 14:54:25;;;;;;;7.25;4.00;;;;;;;;;;4998648;28;20210;-80
2022/04/23 14:56:53;;;;;;;9.27;4.00;;;;;;;;;;4995213;28;20195;-76
2022/04/23 14:59:19;;;;;;;8.07;4.80;;;;;;;;;;5000913;28;20206;-77
2022/04/23 15:01:46;;;;;;;6.95;4.93;;;;;;;;;;5001938;28;20264;-76
2022/04/23 15:04:14;;;;;;;7.20;3.65;;;;;;;;;;4984782;28;20270;-77
2022/04/23 15:06:43;;;;;;;5.75;3.90;;;;;;;;;;4985963;28;20213;-76
2022/04/23 15:09:10;;;;;;;5.35;4.13;;;;;;;;;;4981563;28;20190;-76
2022/04/23 15:11:36;;;;;;;7.05;4.15;;;;;;;;;;4985004;28;20194;-78
2022/04/23 15:14:02;;;;;;;6.88;3.58;;;;;;;;;;5000120;28;20186;-80
2022/04/23 15:16:28;;;;;;;5.68;2.97;;;;;;;;;;4986742;28;20236;-77
2022/04/23 15:18:54;;;;;;;7.40;3.80;;;;;;;;;;5000639;28;20219;-76
2022/04/23 15:21:20;;;;;;;7.63;3.60;;;;;;;;;;5001240;28;20511;-75
2022/04/23 15:23:46;;;;;;;3.97;3.10;;;;;;;;;;5001310;28;20180;-76